Dallas Fort Worth International Airport
KDFW : now visible

Airfield :











YOU CAN JOIN US ON...

 
LOGIN :

Register | Disclaimer

   EN    FR    IT 

 









Legend :    VFR   Marginal VFR   IFR   Intensive IFR   Very Intensive IFR
Visi :
Ceiling :
>= 8 km
>= 3000ft
5 to 8 km
1000 to 3000 ft
1500m to 5 km
500 to 1000 ft
800 to 1500m
200 to 500 ft
< 800m
< 200 ft
Symbols :   Thunderstorms  Fog  Heavy snow  Heavy precipitations  Wind > 20 kt






- Airport Elevation : 607 ft
- IATA code : DFW


KDFW - Dallas Fort Worth International

CURRENT METAR :
  • 211653Z 21011KT 7SM OVC029 27/22 A2980 RMK AO2 SLP081 T02720222

EXPIRED METARs :
  • 211618Z 21012KT 9SM OVC029 27/22 A2980 RMK AO2 T02720217
  • 211553Z 21015KT 9SM FEW027 OVC036 28/22 A2980 RMK AO2 SLP080 T02780217
  • 211531Z 22015KT 9SM FEW026 BKN032 OVC039 27/22 A2980 RMK AO2 T02720217
  • 211453Z 20017G30KT 9SM BKN024 OVC030 27/22 A2978 RMK AO2 PK WND 18030/1446 PRESRR SLP075 T02720217 53012
  • 211405Z 18020G27KT 9SM BKN020 BKN250 27/22 A2976 RMK AO2 PK WND 18027/1355 T02670222
  • 211353Z 18019G29KT 9SM SCT020 BKN250 27/22 A2975 RMK AO2 PK WND 18029/1346 SLP065 SCT V BKN T02670222
  • 211327Z 18014G22KT 8SM SCT020 BKN024 OVC250 26/22 A2976 RMK AO2 T02560217
  • 211253Z 18013G23KT 8SM FEW015 OVC250 25/22 A2976 RMK AO2 SLP067 T02500217

TAF KDFW
Valid from the 21 at 15:00 until the 22 at 18:00 UTC


211450Z 2115/2218 19014G24KT P6SM BKN030
FM211600 18017KT P6SM BKN025
FM211800 18016KT P6SM SCT035
FM212000 17015KT P6SM SCT050
KZFW FIR / North America



MET'MAP, your aeronautical weather chart ! - Copyright ORBIFLY December 2007 - Disclaimer

ORBIFLY MET'MAP TEAM :

Programming & Development : Alexandra Zaïnal
Original concept : Baudouin d'Aumeries
Technical & hardware support : Manuel Goepfert
Assistance : Marc-Olivier Méhu




SOURCES & CREDITS :

   NOAA       Earth
Advisory